sensor_id;sensor_type;location;lat;lon;timestamp;pressure;altitude;pressure_sealevel;temperature;humidity
45525;BME280;31437;58.350;13.828;2023-02-23T00:01:25;100512.25;;;-0.65;100.00
45525;BME280;31437;58.350;13.828;2023-02-23T00:03:52;100513.13;;;-0.64;100.00
45525;BME280;31437;58.350;13.828;2023-02-23T00:06:19;100507.09;;;-0.63;100.00
45525;BME280;31437;58.350;13.828;2023-02-23T00:08:46;100501.94;;;-0.63;100.00
45525;BME280;31437;58.350;13.828;2023-02-23T00:11:12;100496.78;;;-0.62;100.00
45525;BME280;31437;58.350;13.828;2023-02-23T00:13:38;100498.47;;;-0.59;100.00
45525;BME280;31437;58.350;13.828;2023-02-23T00:16:04;100500.22;;;-0.60;100.00
45525;BME280;31437;58.350;13.828;2023-02-23T00:18:30;100494.19;;;-0.60;100.00
45525;BME280;31437;58.350;13.828;2023-02-23T00:21:05;100498.47;;;-0.59;100.00
45525;BME280;31437;58.350;13.828;2023-02-23T00:23:30;100499.38;;;-0.59;100.00
45525;BME280;31437;58.350;13.828;2023-02-23T00:25:55;100505.38;;;-0.58;100.00
45525;BME280;31437;58.350;13.828;2023-02-23T00:28:23;100500.22;;;-0.58;100.00
45525;BME280;31437;58.350;13.828;2023-02-23T00:30:48;100491.63;;;-0.59;100.00
45525;BME280;31437;58.350;13.828;2023-02-23T00:33:14;100489.06;;;-0.59;100.00
45525;BME280;31437;58.350;13.828;2023-02-23T00:35:39;100488.19;;;-0.59;100.00
45525;BME280;31437;58.350;13.828;2023-02-23T00:38:04;100490.75;;;-0.59;100.00
45525;BME280;31437;58.350;13.828;2023-02-23T00:40:30;100477.00;;;-0.60;100.00
45525;BME280;31437;58.350;13.828;2023-02-23T00:42:55;100477.00;;;-0.60;100.00
45525;BME280;31437;58.350;13.828;2023-02-23T00:45:20;100475.31;;;-0.61;100.00
45525;BME280;31437;58.350;13.828;2023-02-23T00:47:45;100474.44;;;-0.63;100.00
45525;BME280;31437;58.350;13.828;2023-02-23T00:50:13;100470.16;;;-0.62;100.00
45525;BME280;31437;58.350;13.828;2023-02-23T00:52:39;100471.00;;;-0.62;100.00
45525;BME280;31437;58.350;13.828;2023-02-23T00:55:05;100465.03;;;-0.64;100.00
45525;BME280;31437;58.350;13.828;2023-02-23T00:57:32;100457.28;;;-0.64;100.00
45525;BME280;31437;58.350;13.828;2023-02-23T00:59:57;100462.44;;;-0.64;100.00
45525;BME280;31437;58.350;13.828;2023-02-23T01:02:22;100457.28;;;-0.64;100.00
45525;BME280;31437;58.350;13.828;2023-02-23T01:04:48;100447.81;;;-0.65;100.00
45525;BME280;31437;58.350;13.828;2023-02-23T01:07:14;100441.81;;;-0.65;100.00
45525;BME280;31437;58.350;13.828;2023-02-23T01:09:39;100446.13;;;-0.64;100.00
45525;BME280;31437;58.350;13.828;2023-02-23T01:12:04;100442.69;;;-0.66;100.00
45525;BME280;31437;58.350;13.828;2023-02-23T01:14:31;100437.53;;;-0.66;100.00
45525;BME280;31437;58.350;13.828;2023-02-23T01:16:57;100431.53;;;-0.67;100.00
45525;BME280;31437;58.350;13.828;2023-02-23T01:19:22;100422.97;;;-0.67;100.00
45525;BME280;31437;58.350;13.828;2023-02-23T01:21:47;100418.66;;;-0.67;100.00
45525;BME280;31437;58.350;13.828;2023-02-23T01:24:13;100416.06;;;-0.67;100.00
45525;BME280;31437;58.350;13.828;2023-02-23T01:26:42;100419.50;;;-0.66;100.00
45525;BME280;31437;58.350;13.828;2023-02-23T01:29:13;100408.34;;;-0.67;100.00
45525;BME280;31437;58.350;13.828;2023-02-23T01:31:39;100408.34;;;-0.67;100.00
45525;BME280;31437;58.350;13.828;2023-02-23T01:34:05;100404.91;;;-0.67;100.00
45525;BME280;31437;58.350;13.828;2023-02-23T01:36:35;100402.34;;;-0.67;100.00
45525;BME280;31437;58.350;13.828;2023-02-23T01:39:00;100410.06;;;-0.67;100.00
45525;BME280;31437;58.350;13.828;2023-02-23T01:41:27;100399.78;;;-0.67;100.00
45525;BME280;31437;58.350;13.828;2023-02-23T01:43:56;100394.59;;;-0.69;100.00
45525;BME280;31437;58.350;13.828;2023-02-23T01:46:21;100396.34;;;-0.70;100.00
45525;BME280;31437;58.350;13.828;2023-02-23T01:48:47;100397.19;;;-0.69;100.00
45525;BME280;31437;58.350;13.828;2023-02-23T01:51:13;100393.75;;;-0.70;100.00
45525;BME280;31437;58.350;13.828;2023-02-23T01:53:43;100389.47;;;-0.71;100.00
45525;BME280;31437;58.350;13.828;2023-02-23T01:56:14;100391.16;;;-0.71;100.00
45525;BME280;31437;58.350;13.828;2023-02-23T01:58:47;100383.44;;;-0.71;100.00
45525;BME280;31437;58.350;13.828;2023-02-23T02:01:16;100391.16;;;-0.71;100.00
45525;BME280;31437;58.350;13.828;2023-02-23T02:03:46;100390.34;;;-0.73;100.00
45525;BME280;31437;58.350;13.828;2023-02-23T02:06:13;100368.94;;;-0.92;100.00
45525;BME280;31437;58.350;13.828;2023-02-23T02:08:40;100385.19;;;-0.78;100.00
45525;BME280;31437;58.350;13.828;2023-02-23T02:11:14;100387.78;;;-0.81;100.00
45525;BME280;31437;58.350;13.828;2023-02-23T02:16:38;100391.25;;;-0.86;100.00
45525;BME280;31437;58.350;13.828;2023-02-23T02:21:49;100384.41;;;-0.90;100.00
45525;BME280;31437;58.350;13.828;2023-02-23T02:24:48;100393.84;;;-0.93;100.00
45525;BME280;31437;58.350;13.828;2023-02-23T02:35:27;100412.78;;;-1.03;100.00
45525;BME280;31437;58.350;13.828;2023-02-23T02:40:33;100411.91;;;-1.06;100.00
45525;BME280;31437;58.350;13.828;2023-02-23T02:43:14;100416.25;;;-1.08;100.00
45525;BME280;31437;58.350;13.828;2023-02-23T02:53:27;100423.09;;;-1.15;100.00
45525;BME280;31437;58.350;13.828;2023-02-23T02:55:53;100424.84;;;-1.17;100.00
45525;BME280;31437;58.350;13.828;2023-02-23T02:58:20;100425.69;;;-1.20;100.00
45525;BME280;31437;58.350;13.828;2023-02-23T03:00:49;100423.13;;;-1.20;100.00
45525;BME280;31437;58.350;13.828;2023-02-23T03:03:37;100424.84;;;-1.22;100.00
45525;BME280;31437;58.350;13.828;2023-02-23T03:06:26;100430.00;;;-1.23;100.00
45525;BME280;31437;58.350;13.828;2023-02-23T03:09:16;100420.56;;;-1.24;100.00
45525;BME280;31437;58.350;13.828;2023-02-23T03:12:05;100431.72;;;-1.25;100.00
45525;BME280;31437;58.350;13.828;2023-02-23T03:17:59;100437.72;;;-1.28;100.00
45525;BME280;31437;58.350;13.828;2023-02-23T03:20:46;100439.44;;;-1.28;100.00
45525;BME280;31437;58.350;13.828;2023-02-23T03:23:46;100440.31;;;-1.29;100.00
45525;BME280;31437;58.350;13.828;2023-02-23T03:29:24;100455.75;;;-1.32;100.00
45525;BME280;31437;58.350;13.828;2023-02-23T03:36:02;100456.63;;;-1.35;100.00
45525;BME280;31437;58.350;13.828;2023-02-23T03:38:20;100458.31;;;-1.34;100.00
45525;BME280;31437;58.350;13.828;2023-02-23T03:41:06;100456.63;;;-1.35;100.00
45525;BME280;31437;58.350;13.828;2023-02-23T03:43:54;100462.63;;;-1.34;100.00
45525;BME280;31437;58.350;13.828;2023-02-23T03:46:40;100465.19;;;-1.34;100.00
45525;BME280;31437;58.350;13.828;2023-02-23T03:49:26;100462.59;;;-1.36;100.00
45525;BME280;31437;58.350;13.828;2023-02-23T03:52:13;100466.91;;;-1.37;100.00
45525;BME280;31437;58.350;13.828;2023-02-23T03:55:00;100474.63;;;-1.37;100.00
45525;BME280;31437;58.350;13.828;2023-02-23T03:57:45;100478.91;;;-1.35;100.00
45525;BME280;31437;58.350;13.828;2023-02-23T04:00:32;100478.06;;;-1.36;100.00
45525;BME280;31437;58.350;13.828;2023-02-23T04:03:17;100479.78;;;-1.35;100.00
45525;BME280;31437;58.350;13.828;2023-02-23T04:06:03;100482.34;;;-1.37;100.00
45525;BME280;31437;58.350;13.828;2023-02-23T04:08:51;100484.06;;;-1.35;100.00
45525;BME280;31437;58.350;13.828;2023-02-23T04:11:49;100489.19;;;-1.35;100.00
45525;BME280;31437;58.350;13.828;2023-02-23T04:17:08;100489.22;;;-1.34;100.00
45525;BME280;31437;58.350;13.828;2023-02-23T04:19:34;100495.22;;;-1.33;100.00
45525;BME280;31437;58.350;13.828;2023-02-23T04:21:59;100498.63;;;-1.33;100.00
45525;BME280;31437;58.350;13.828;2023-02-23T04:24:25;100494.38;;;-1.34;100.00
45525;BME280;31437;58.350;13.828;2023-02-23T04:26:50;100492.63;;;-1.33;100.00
45525;BME280;31437;58.350;13.828;2023-02-23T04:29:15;100490.91;;;-1.33;100.00
45525;BME280;31437;58.350;13.828;2023-02-23T04:31:40;100494.34;;;-1.31;100.00
45525;BME280;31437;58.350;13.828;2023-02-23T04:34:06;100492.66;;;-1.32;100.00
45525;BME280;31437;58.350;13.828;2023-02-23T04:36:32;100500.38;;;-1.32;100.00
45525;BME280;31437;58.350;13.828;2023-02-23T04:38:57;100504.66;;;-1.31;100.00
45525;BME280;31437;58.350;13.828;2023-02-23T04:41:22;100502.06;;;-1.31;100.00
45525;BME280;31437;58.350;13.828;2023-02-23T04:43:48;100497.78;;;-1.30;100.00
45525;BME280;31437;58.350;13.828;2023-02-23T04:46:13;100502.09;;;-1.29;100.00
45525;BME280;31437;58.350;13.828;2023-02-23T04:48:38;100502.09;;;-1.29;100.00
45525;BME280;31437;58.350;13.828;2023-02-23T04:51:04;100501.22;;;-1.28;100.00
45525;BME280;31437;58.350;13.828;2023-02-23T04:53:29;100506.38;;;-1.28;100.00
45525;BME280;31437;58.350;13.828;2023-02-23T04:55:54;100508.06;;;-1.27;100.00
45525;BME280;31437;58.350;13.828;2023-02-23T04:58:20;100502.94;;;-1.27;100.00
45525;BME280;31437;58.350;13.828;2023-02-23T05:00:45;100507.22;;;-1.25;100.00
45525;BME280;31437;58.350;13.828;2023-02-23T05:03:10;100503.78;;;-1.25;100.00
45525;BME280;31437;58.350;13.828;2023-02-23T05:05:36;100504.66;;;-1.23;100.00
45525;BME280;31437;58.350;13.828;2023-02-23T05:08:02;100511.50;;;-1.22;100.00
45525;BME280;31437;58.350;13.828;2023-02-23T05:10:27;100508.94;;;-1.22;100.00
45525;BME280;31437;58.350;13.828;2023-02-23T05:12:53;100512.38;;;-1.20;100.00
45525;BME280;31437;58.350;13.828;2023-02-23T05:15:18;100507.22;;;-1.19;100.00
45525;BME280;31437;58.350;13.828;2023-02-23T05:17:44;100501.22;;;-1.18;100.00
45525;BME280;31437;58.350;13.828;2023-02-23T05:20:09;100502.06;;;-1.17;100.00
45525;BME280;31437;58.350;13.828;2023-02-23T05:22:35;100502.94;;;-1.17;100.00
45525;BME280;31437;58.350;13.828;2023-02-23T05:25:01;100494.34;;;-1.16;100.00
45525;BME280;31437;58.350;13.828;2023-02-23T05:27:28;100495.19;;;-1.15;100.00
45525;BME280;31437;58.350;13.828;2023-02-23T05:29:53;100494.34;;;-1.14;100.00
45525;BME280;31437;58.350;13.828;2023-02-23T05:32:18;100491.75;;;-1.12;100.00
45525;BME280;31437;58.350;13.828;2023-02-23T05:34:46;100495.19;;;-1.13;100.00
45525;BME280;31437;58.350;13.828;2023-02-23T05:37:11;100488.34;;;-1.11;100.00
45525;BME280;31437;58.350;13.828;2023-02-23T05:39:36;100500.34;;;-1.10;100.00
45525;BME280;31437;58.350;13.828;2023-02-23T05:42:02;100501.19;;;-1.10;100.00
45525;BME280;31437;58.350;13.828;2023-02-23T05:44:27;100489.16;;;-1.09;100.00
45525;BME280;31437;58.350;13.828;2023-02-23T05:46:52;100486.59;;;-1.09;100.00
45525;BME280;31437;58.350;13.828;2023-02-23T05:49:18;100492.63;;;-1.07;100.00
45525;BME280;31437;58.350;13.828;2023-02-23T05:51:43;100490.88;;;-1.07;100.00
45525;BME280;31437;58.350;13.828;2023-02-23T05:54:08;100490.06;;;-1.06;100.00
45525;BME280;31437;58.350;13.828;2023-02-23T05:56:34;100485.75;;;-1.05;100.00
45525;BME280;31437;58.350;13.828;2023-02-23T05:59:00;100491.75;;;-1.05;100.00
45525;BME280;31437;58.350;13.828;2023-02-23T06:01:29;100485.72;;;-1.04;100.00
45525;BME280;31437;58.350;13.828;2023-02-23T06:03:54;100478.00;;;-1.04;100.00
45525;BME280;31437;58.350;13.828;2023-02-23T06:06:20;100482.31;;;-1.03;100.00
45525;BME280;31437;58.350;13.828;2023-02-23T06:08:48;100482.28;;;-1.01;100.00
45525;BME280;31437;58.350;13.828;2023-02-23T06:11:13;100480.56;;;-1.01;100.00
45525;BME280;31437;58.350;13.828;2023-02-23T06:13:39;100480.59;;;-0.99;100.00
45525;BME280;31437;58.350;13.828;2023-02-23T06:16:05;100477.13;;;-0.98;100.00
45525;BME280;31437;58.350;13.828;2023-02-23T06:18:31;100478.84;;;-0.97;100.00
45525;BME280;31437;58.350;13.828;2023-02-23T06:21:00;100478.00;;;-0.96;100.00
45525;BME280;31437;58.350;13.828;2023-02-23T06:23:26;100473.72;;;-0.94;100.00
45525;BME280;31437;58.350;13.828;2023-02-23T06:25:52;100479.72;;;-0.94;100.00
45525;BME280;31437;58.350;13.828;2023-02-23T06:28:17;100487.41;;;-0.92;100.00
45525;BME280;31437;58.350;13.828;2023-02-23T06:30:45;100473.69;;;-0.91;100.00
45525;BME280;31437;58.350;13.828;2023-02-23T06:33:11;100481.41;;;-0.89;100.00
45525;BME280;31437;58.350;13.828;2023-02-23T06:35:36;100482.25;;;-0.89;100.00
45525;BME280;31437;58.350;13.828;2023-02-23T06:38:03;100485.69;;;-0.87;100.00
45525;BME280;31437;58.350;13.828;2023-02-23T06:40:30;100481.41;;;-0.85;100.00
45525;BME280;31437;58.350;13.828;2023-02-23T06:42:55;100481.38;;;-0.83;100.00
45525;BME280;31437;58.350;13.828;2023-02-23T06:45:21;100481.38;;;-0.80;100.00
45525;BME280;31437;58.350;13.828;2023-02-23T06:47:46;100483.97;;;-0.79;100.00
45525;BME280;31437;58.350;13.828;2023-02-23T06:50:12;100485.66;;;-0.78;100.00
45525;BME280;31437;58.350;13.828;2023-02-23T06:52:38;100498.53;;;-0.75;100.00
45525;BME280;31437;58.350;13.828;2023-02-23T06:55:03;100489.09;;;-0.73;100.00
45525;BME280;31437;58.350;13.828;2023-02-23T06:57:29;100483.06;;;-0.72;100.00
45525;BME280;31437;58.350;13.828;2023-02-23T06:59:54;100486.53;;;-0.73;100.00
45525;BME280;31437;58.350;13.828;2023-02-23T07:02:20;100483.91;;;-0.71;100.00
45525;BME280;31437;58.350;13.828;2023-02-23T07:04:46;100484.78;;;-0.67;100.00
45525;BME280;31437;58.350;13.828;2023-02-23T07:07:12;100483.91;;;-0.63;100.00
45525;BME280;31437;58.350;13.828;2023-02-23T07:09:38;100485.59;;;-0.59;100.00
45525;BME280;31437;58.350;13.828;2023-02-23T07:12:04;100490.75;;;-0.55;100.00
45525;BME280;31437;58.350;13.828;2023-02-23T07:14:29;100495.88;;;-0.50;100.00
45525;BME280;31437;58.350;13.828;2023-02-23T07:16:55;100500.16;;;-0.46;100.00
45525;BME280;31437;58.350;13.828;2023-02-23T07:19:22;100492.38;;;-0.41;100.00
45525;BME280;31437;58.350;13.828;2023-02-23T07:21:48;100488.94;;;-0.36;100.00
45525;BME280;31437;58.350;13.828;2023-02-23T07:24:13;100494.06;;;-0.30;100.00
45525;BME280;31437;58.350;13.828;2023-02-23T07:26:38;100499.19;;;-0.27;100.00
45525;BME280;31437;58.350;13.828;2023-02-23T07:29:08;100500.03;;;-0.18;100.00
45525;BME280;31437;58.350;13.828;2023-02-23T07:31:34;100497.44;;;-0.14;100.00
45525;BME280;31437;58.350;13.828;2023-02-23T07:33:59;100500.84;;;-0.06;100.00
45525;BME280;31437;58.350;13.828;2023-02-23T07:36:24;100499.06;;;0.01;100.00
45525;BME280;31437;58.350;13.828;2023-02-23T07:38:50;100501.59;;;0.09;100.00
45525;BME280;31437;58.350;13.828;2023-02-23T07:41:15;100495.53;;;0.14;100.00
45525;BME280;31437;58.350;13.828;2023-02-23T07:43:41;100493.78;;;0.19;100.00
45525;BME280;31437;58.350;13.828;2023-02-23T07:46:06;100497.19;;;0.25;100.00
45525;BME280;31437;58.350;13.828;2023-02-23T07:48:32;100498.03;;;0.30;100.00
45525;BME280;31437;58.350;13.828;2023-02-23T07:50:57;100487.66;;;0.34;100.00
45525;BME280;31437;58.350;13.828;2023-02-23T07:53:23;100496.22;;;0.38;100.00
45525;BME280;31437;58.350;13.828;2023-02-23T07:55:58;100491.03;;;0.41;100.00
45525;BME280;31437;58.350;13.828;2023-02-23T07:58:24;100489.31;;;0.43;100.00
45525;BME280;31437;58.350;13.828;2023-02-23T08:00:50;100483.28;;;0.42;100.00
45525;BME280;31437;58.350;13.828;2023-02-23T08:03:15;100476.41;;;0.44;100.00
45525;BME280;31437;58.350;13.828;2023-02-23T08:05:40;100467.75;;;0.47;100.00
45525;BME280;31437;58.350;13.828;2023-02-23T08:08:07;100469.44;;;0.50;100.00
45525;BME280;31437;58.350;13.828;2023-02-23T08:10:32;100466.84;;;0.53;100.00
45525;BME280;31437;58.350;13.828;2023-02-23T08:12:57;100465.13;;;0.56;100.00
45525;BME280;31437;58.350;13.828;2023-02-23T08:15:24;100453.03;;;0.58;100.00
45525;BME280;31437;58.350;13.828;2023-02-23T08:17:49;100453.84;;;0.63;100.00
45525;BME280;31437;58.350;13.828;2023-02-23T08:20:17;100446.06;;;0.66;100.00
45525;BME280;31437;58.350;13.828;2023-02-23T08:22:43;100449.50;;;0.67;100.00
45525;BME280;31437;58.350;13.828;2023-02-23T08:25:08;100441.75;;;0.67;100.00
45525;BME280;31437;58.350;13.828;2023-02-23T08:27:34;100436.59;;;0.67;100.00
45525;BME280;31437;58.350;13.828;2023-02-23T08:29:59;100425.44;;;0.65;100.00
45525;BME280;31437;58.350;13.828;2023-02-23T08:32:28;100427.16;;;0.64;100.00
45525;BME280;31437;58.350;13.828;2023-02-23T08:34:54;100411.72;;;0.60;100.00
45525;BME280;31437;58.350;13.828;2023-02-23T08:37:21;100408.25;;;0.62;100.00
45525;BME280;31437;58.350;13.828;2023-02-23T08:39:47;100409.09;;;0.61;100.00
45525;BME280;31437;58.350;13.828;2023-02-23T08:42:12;100403.94;;;0.63;100.00
45525;BME280;31437;58.350;13.828;2023-02-23T08:44:38;100398.75;;;0.64;100.00
45525;BME280;31437;58.350;13.828;2023-02-23T08:47:03;100398.72;;;0.67;100.00
45525;BME280;31437;58.350;13.828;2023-02-23T08:49:29;100382.38;;;0.68;100.00
45525;BME280;31437;58.350;13.828;2023-02-23T08:51:56;100384.97;;;0.68;100.00
45525;BME280;31437;58.350;13.828;2023-02-23T08:54:21;100375.47;;;0.69;100.00
45525;BME280;31437;58.350;13.828;2023-02-23T08:56:47;100380.59;;;0.71;100.00
45525;BME280;31437;58.350;13.828;2023-02-23T08:59:12;100370.28;;;0.72;100.00
45525;BME280;31437;58.350;13.828;2023-02-23T09:01:38;100371.13;;;0.73;100.00
45525;BME280;31437;58.350;13.828;2023-02-23T09:04:04;100361.59;;;0.76;100.00
45525;BME280;31437;58.350;13.828;2023-02-23T09:06:29;100354.78;;;0.74;100.00
45525;BME280;31437;58.350;13.828;2023-02-23T09:08:54;100350.41;;;0.79;100.00
45525;BME280;31437;58.350;13.828;2023-02-23T09:11:20;100350.34;;;0.82;100.00
45525;BME280;31437;58.350;13.828;2023-02-23T09:13:46;100343.44;;;0.85;100.00
45525;BME280;31437;58.350;13.828;2023-02-23T09:16:11;100337.41;;;0.86;100.00
45525;BME280;31437;58.350;13.828;2023-02-23T09:18:37;100333.03;;;0.92;100.00
45525;BME280;31437;58.350;13.828;2023-02-23T09:21:06;100340.69;;;0.99;100.00
45525;BME280;31437;58.350;13.828;2023-02-23T09:23:35;100332.88;;;1.04;100.00
45525;BME280;31437;58.350;13.828;2023-02-23T09:26:01;100335.44;;;1.07;100.00
45525;BME280;31437;58.350;13.828;2023-02-23T09:28:27;100328.47;;;1.12;100.00
45525;BME280;31437;58.350;13.828;2023-02-23T09:30:55;100330.91;;;1.24;100.00
45525;BME280;31437;58.350;13.828;2023-02-23T09:33:21;100328.13;;;1.35;100.00
45525;BME280;31437;58.350;13.828;2023-02-23T09:35:47;100325.47;;;1.43;100.00
45525;BME280;31437;58.350;13.828;2023-02-23T09:38:12;100315.06;;;1.47;100.00
45525;BME280;31437;58.350;13.828;2023-02-23T09:40:48;100315.72;;;1.58;100.00
45525;BME280;31437;58.350;13.828;2023-02-23T09:48:17;100307.66;;;1.80;100.00
45525;BME280;31437;58.350;13.828;2023-02-23T09:50:48;100306.69;;;1.86;100.00
45525;BME280;31437;58.350;13.828;2023-02-23T09:55:42;100291.09;;;1.90;100.00
45525;BME280;31437;58.350;13.828;2023-02-23T09:58:15;100287.59;;;1.93;100.00
45525;BME280;31437;58.350;13.828;2023-02-23T10:00:44;100278.03;;;1.96;100.00
45525;BME280;31437;58.350;13.828;2023-02-23T10:03:18;100262.63;;;1.90;100.00
45525;BME280;31437;58.350;13.828;2023-02-23T10:05:51;100260.03;;;1.90;100.00
45525;BME280;31437;58.350;13.828;2023-02-23T10:08:41;100255.75;;;1.88;100.00
45525;BME280;31437;58.350;13.828;2023-02-23T10:11:13;100243.84;;;1.79;100.00
45525;BME280;31437;58.350;13.828;2023-02-23T10:21:40;100216.47;;;1.67;100.00
45525;BME280;31437;58.350;13.828;2023-02-23T10:24:16;100213.03;;;1.67;100.00
45525;BME280;31437;58.350;13.828;2023-02-23T10:29:18;100214.47;;;1.83;100.00
45525;BME280;31437;58.350;13.828;2023-02-23T10:31:45;100204.81;;;1.93;100.00
45525;BME280;31437;58.350;13.828;2023-02-23T10:34:14;100204.78;;;1.94;100.00
45525;BME280;31437;58.350;13.828;2023-02-23T10:37:01;100205.53;;;2.01;100.00
45525;BME280;31437;58.350;13.828;2023-02-23T10:39:25;100196.84;;;2.03;100.00
45525;BME280;31437;58.350;13.828;2023-02-23T10:41:51;100188.25;;;2.03;100.00
45525;BME280;31437;58.350;13.828;2023-02-23T10:44:19;100183.00;;;2.06;100.00
45525;BME280;31437;58.350;13.828;2023-02-23T10:46:45;100183.84;;;2.07;100.00
45525;BME280;31437;58.350;13.828;2023-02-23T10:49:15;100172.72;;;2.01;100.00
45525;BME280;31437;58.350;13.828;2023-02-23T10:51:42;100170.16;;;2.00;100.00
45525;BME280;31437;58.350;13.828;2023-02-23T10:56:52;100155.09;;;1.75;100.00
45525;BME280;31437;58.350;13.828;2023-02-23T10:59:18;100150.13;;;1.65;100.00
45525;BME280;31437;58.350;13.828;2023-02-23T11:01:43;100142.38;;;1.65;100.00
45525;BME280;31437;58.350;13.828;2023-02-23T11:04:15;100139.81;;;1.63;100.00
45525;BME280;31437;58.350;13.828;2023-02-23T11:06:44;100138.13;;;1.62;100.00
45525;BME280;31437;58.350;13.828;2023-02-23T11:09:23;100138.09;;;1.64;100.00
45525;BME280;31437;58.350;13.828;2023-02-23T11:14:40;100135.50;;;1.65;100.00
45525;BME280;31437;58.350;13.828;2023-02-23T11:17:09;100126.84;;;1.65;100.00
45525;BME280;31437;58.350;13.828;2023-02-23T11:19:47;100133.69;;;1.67;100.00
45525;BME280;31437;58.350;13.828;2023-02-23T11:22:17;100129.41;;;1.68;100.00
45525;BME280;31437;58.350;13.828;2023-02-23T11:24:47;100127.66;;;1.68;100.00
45525;BME280;31437;58.350;13.828;2023-02-23T11:27:20;100125.03;;;1.71;100.00
45525;BME280;31437;58.350;13.828;2023-02-23T11:29:47;100119.78;;;1.74;100.00
45525;BME280;31437;58.350;13.828;2023-02-23T11:32:35;100114.56;;;1.76;100.00
45525;BME280;31437;58.350;13.828;2023-02-23T11:37:49;100110.16;;;1.83;100.00
45525;BME280;31437;58.350;13.828;2023-02-23T11:40:27;100104.94;;;1.86;100.00
45525;BME280;31437;58.350;13.828;2023-02-23T11:42:53;100108.25;;;1.91;100.00
45525;BME280;31437;58.350;13.828;2023-02-23T11:45:20;100107.31;;;1.95;100.00
45525;BME280;31437;58.350;13.828;2023-02-23T11:47:47;100101.38;;;1.90;100.00
45525;BME280;31437;58.350;13.828;2023-02-23T11:50:24;100098.78;;;1.90;100.00
45525;BME280;31437;58.350;13.828;2023-02-23T11:52:53;100101.41;;;1.88;100.00
45525;BME280;31437;58.350;13.828;2023-02-23T11:55:19;100095.41;;;1.86;100.00
45525;BME280;31437;58.350;13.828;2023-02-23T11:57:45;100100.47;;;1.91;100.00
45525;BME280;31437;58.350;13.828;2023-02-23T12:00:20;100100.47;;;1.91;100.00
45525;BME280;31437;58.350;13.828;2023-02-23T12:02:50;100094.53;;;1.87;100.00
45525;BME280;31437;58.350;13.828;2023-02-23T12:10:33;100102.59;;;1.70;100.00
45525;BME280;31437;58.350;13.828;2023-02-23T12:20:55;100093.56;;;1.48;100.00
45525;BME280;31437;58.350;13.828;2023-02-23T12:23:24;100102.28;;;1.42;100.00
45525;BME280;31437;58.350;13.828;2023-02-23T12:25:55;100109.22;;;1.40;100.00
45525;BME280;31437;58.350;13.828;2023-02-23T12:31:27;100112.63;;;1.41;100.00
45525;BME280;31437;58.350;13.828;2023-02-23T12:34:00;100111.75;;;1.43;100.00
45525;BME280;31437;58.350;13.828;2023-02-23T12:36:33;100116.84;;;1.46;100.00
45525;BME280;31437;58.350;13.828;2023-02-23T12:45:04;100125.31;;;1.54;100.00
45525;BME280;31437;58.350;13.828;2023-02-23T12:47:20;100128.69;;;1.59;100.00
45525;BME280;31437;58.350;13.828;2023-02-23T12:49:51;100126.91;;;1.62;100.00
45525;BME280;31437;58.350;13.828;2023-02-23T12:52:21;100126.00;;;1.64;100.00
45525;BME280;31437;58.350;13.828;2023-02-23T12:54:50;100133.69;;;1.69;100.00
45525;BME280;31437;58.350;13.828;2023-02-23T13:02:37;100136.16;;;1.75;100.00
45525;BME280;31437;58.350;13.828;2023-02-23T13:10:11;100133.53;;;1.76;100.00
45525;BME280;31437;58.350;13.828;2023-02-23T13:12:43;100133.44;;;1.81;100.00
45525;BME280;31437;58.350;13.828;2023-02-23T13:15:16;100134.34;;;1.80;100.00
45525;BME280;31437;58.350;13.828;2023-02-23T13:22:55;100129.19;;;1.80;100.00
45525;BME280;31437;58.350;13.828;2023-02-23T13:25:58;100125.75;;;1.78;100.00
45525;BME280;31437;58.350;13.828;2023-02-23T13:28:35;100133.50;;;1.79;100.00
45525;BME280;31437;58.350;13.828;2023-02-23T13:31:03;100136.09;;;1.78;100.00
45525;BME280;31437;58.350;13.828;2023-02-23T13:33:30;100137.00;;;1.77;100.00
45525;BME280;31437;58.350;13.828;2023-02-23T13:36:01;100134.41;;;1.75;100.00
45525;BME280;31437;58.350;13.828;2023-02-23T13:38:33;100132.69;;;1.76;100.00
45525;BME280;31437;58.350;13.828;2023-02-23T13:41:48;100123.16;;;1.78;100.00
45525;BME280;31437;58.350;13.828;2023-02-23T13:43:58;100123.09;;;1.81;100.00
45525;BME280;31437;58.350;13.828;2023-02-23T13:46:34;100129.06;;;1.85;100.00
45525;BME280;31437;58.350;13.828;2023-02-23T13:49:14;100124.78;;;1.84;100.00
45525;BME280;31437;58.350;13.828;2023-02-23T13:51:51;100129.06;;;1.85;100.00
45525;BME280;31437;58.350;13.828;2023-02-23T13:54:32;100128.25;;;1.83;100.00
45525;BME280;31437;58.350;13.828;2023-02-23T13:56:59;100116.97;;;1.85;100.00
45525;BME280;31437;58.350;13.828;2023-02-23T13:59:29;100115.28;;;1.86;100.00
45525;BME280;31437;58.350;13.828;2023-02-23T14:04:43;100130.63;;;1.93;100.00
45525;BME280;31437;58.350;13.828;2023-02-23T14:07:26;100120.25;;;1.95;100.00
45525;BME280;31437;58.350;13.828;2023-02-23T14:10:22;100118.47;;;1.97;100.00
45525;BME280;31437;58.350;13.828;2023-02-23T14:15:28;100114.97;;;2.01;100.00
45525;BME280;31437;58.350;13.828;2023-02-23T14:28:24;100123.13;;;2.23;100.00
45525;BME280;31437;58.350;13.828;2023-02-23T14:41:25;100102.47;;;2.20;100.00
45525;BME280;31437;58.350;13.828;2023-02-23T14:43:58;100099.09;;;2.18;100.00
45525;BME280;31437;58.350;13.828;2023-02-23T14:46:27;100102.72;;;2.09;100.00
45525;BME280;31437;58.350;13.828;2023-02-23T14:49:07;100094.25;;;2.01;100.00
45525;BME280;31437;58.350;13.828;2023-02-23T14:51:55;100088.31;;;1.96;100.00
45525;BME280;31437;58.350;13.828;2023-02-23T14:56:52;100084.13;;;1.90;100.00